sensor_id;sensor_type;location;lat;lon;timestamp;P1;durP1;ratioP1;P2;durP2;ratioP2
43152;SDS011;28756;49.064;9.290;2023-12-29T00:00:04;1.20;;;1.08;;
43152;SDS011;28756;49.064;9.290;2023-12-29T00:02:30;1.55;;;1.23;;
43152;SDS011;28756;49.064;9.290;2023-12-29T00:04:56;1.80;;;1.30;;
43152;SDS011;28756;49.064;9.290;2023-12-29T00:07:21;2.03;;;1.45;;
43152;SDS011;28756;49.064;9.290;2023-12-29T00:09:47;1.30;;;1.20;;
43152;SDS011;28756;49.064;9.290;2023-12-29T00:12:12;1.35;;;1.23;;
43152;SDS011;28756;49.064;9.290;2023-12-29T00:14:41;1.88;;;1.40;;
43152;SDS011;28756;49.064;9.290;2023-12-29T00:17:07;1.88;;;1.33;;
43152;SDS011;28756;49.064;9.290;2023-12-29T00:19:33;1.75;;;1.10;;
43152;SDS011;28756;49.064;9.290;2023-12-29T00:21:58;1.67;;;1.50;;
43152;SDS011;28756;49.064;9.290;2023-12-29T00:24:25;2.00;;;1.38;;
43152;SDS011;28756;49.064;9.290;2023-12-29T00:26:51;1.50;;;1.15;;
43152;SDS011;28756;49.064;9.290;2023-12-29T00:29:16;1.95;;;1.40;;
43152;SDS011;28756;49.064;9.290;2023-12-29T00:31:42;1.63;;;1.25;;
43152;SDS011;28756;49.064;9.290;2023-12-29T00:34:08;1.65;;;1.55;;
43152;SDS011;28756;49.064;9.290;2023-12-29T00:36:33;2.30;;;1.67;;
43152;SDS011;28756;49.064;9.290;2023-12-29T00:38:59;3.22;;;1.60;;
43152;SDS011;28756;49.064;9.290;2023-12-29T00:41:24;2.05;;;1.50;;
43152;SDS011;28756;49.064;9.290;2023-12-29T00:43:50;2.42;;;1.45;;
43152;SDS011;28756;49.064;9.290;2023-12-29T00:46:16;2.55;;;1.75;;
43152;SDS011;28756;49.064;9.290;2023-12-29T00:48:41;3.03;;;1.90;;
43152;SDS011;28756;49.064;9.290;2023-12-29T00:51:07;3.38;;;1.90;;
43152;SDS011;28756;49.064;9.290;2023-12-29T00:53:34;2.70;;;1.77;;
43152;SDS011;28756;49.064;9.290;2023-12-29T00:56:00;2.85;;;2.05;;
43152;SDS011;28756;49.064;9.290;2023-12-29T00:58:25;2.22;;;1.70;;
43152;SDS011;28756;49.064;9.290;2023-12-29T01:00:51;2.05;;;1.83;;
43152;SDS011;28756;49.064;9.290;2023-12-29T01:03:17;2.03;;;1.83;;
43152;SDS011;28756;49.064;9.290;2023-12-29T01:05:43;2.10;;;1.90;;
43152;SDS011;28756;49.064;9.290;2023-12-29T01:08:08;2.40;;;2.08;;
43152;SDS011;28756;49.064;9.290;2023-12-29T01:10:34;2.47;;;2.08;;
43152;SDS011;28756;49.064;9.290;2023-12-29T01:12:59;2.28;;;2.05;;
43152;SDS011;28756;49.064;9.290;2023-12-29T01:15:25;3.85;;;2.08;;
43152;SDS011;28756;49.064;9.290;2023-12-29T01:17:51;3.05;;;2.30;;
43152;SDS011;28756;49.064;9.290;2023-12-29T01:20:16;3.25;;;2.38;;
43152;SDS011;28756;49.064;9.290;2023-12-29T01:22:42;2.85;;;1.90;;
43152;SDS011;28756;49.064;9.290;2023-12-29T01:25:07;2.28;;;2.08;;
43152;SDS011;28756;49.064;9.290;2023-12-29T01:27:33;3.33;;;2.47;;
43152;SDS011;28756;49.064;9.290;2023-12-29T01:29:59;4.35;;;2.50;;
43152;SDS011;28756;49.064;9.290;2023-12-29T01:32:25;2.88;;;2.55;;
43152;SDS011;28756;49.064;9.290;2023-12-29T01:34:51;3.65;;;2.83;;
43152;SDS011;28756;49.064;9.290;2023-12-29T01:37:17;2.80;;;2.15;;
43152;SDS011;28756;49.064;9.290;2023-12-29T01:39:43;3.42;;;2.65;;
43152;SDS011;28756;49.064;9.290;2023-12-29T01:42:08;3.97;;;2.70;;
43152;SDS011;28756;49.064;9.290;2023-12-29T01:44:35;3.75;;;2.45;;
43152;SDS011;28756;49.064;9.290;2023-12-29T01:47:01;3.85;;;2.50;;
43152;SDS011;28756;49.064;9.290;2023-12-29T01:49:28;2.83;;;2.58;;
43152;SDS011;28756;49.064;9.290;2023-12-29T01:51:55;3.17;;;2.70;;
43152;SDS011;28756;49.064;9.290;2023-12-29T01:54:23;2.95;;;2.33;;
43152;SDS011;28756;49.064;9.290;2023-12-29T01:56:51;2.83;;;2.40;;
43152;SDS011;28756;49.064;9.290;2023-12-29T01:59:20;3.08;;;2.40;;
43152;SDS011;28756;49.064;9.290;2023-12-29T02:01:45;4.28;;;2.45;;
43152;SDS011;28756;49.064;9.290;2023-12-29T02:04:12;3.70;;;2.72;;
43152;SDS011;28756;49.064;9.290;2023-12-29T02:06:38;4.25;;;2.20;;
43152;SDS011;28756;49.064;9.290;2023-12-29T02:09:05;4.22;;;2.70;;
43152;SDS011;28756;49.064;9.290;2023-12-29T02:11:31;3.17;;;2.50;;
43152;SDS011;28756;49.064;9.290;2023-12-29T02:13:57;3.17;;;2.33;;
43152;SDS011;28756;49.064;9.290;2023-12-29T02:16:33;2.65;;;2.25;;
43152;SDS011;28756;49.064;9.290;2023-12-29T02:19:06;3.50;;;2.53;;
43152;SDS011;28756;49.064;9.290;2023-12-29T02:21:50;3.10;;;2.22;;
43152;SDS011;28756;49.064;9.290;2023-12-29T02:24:16;2.70;;;2.40;;
43152;SDS011;28756;49.064;9.290;2023-12-29T02:26:42;2.42;;;2.22;;
43152;SDS011;28756;49.064;9.290;2023-12-29T02:29:13;3.03;;;2.42;;
43152;SDS011;28756;49.064;9.290;2023-12-29T02:31:40;2.38;;;2.10;;
43152;SDS011;28756;49.064;9.290;2023-12-29T02:34:09;3.28;;;2.38;;
43152;SDS011;28756;49.064;9.290;2023-12-29T02:36:37;2.83;;;2.38;;
43152;SDS011;28756;49.064;9.290;2023-12-29T02:39:07;2.60;;;2.28;;
43152;SDS011;28756;49.064;9.290;2023-12-29T02:41:37;2.58;;;2.22;;
43152;SDS011;28756;49.064;9.290;2023-12-29T02:44:04;2.97;;;2.22;;
43152;SDS011;28756;49.064;9.290;2023-12-29T02:46:29;2.80;;;2.28;;
43152;SDS011;28756;49.064;9.290;2023-12-29T02:48:55;3.50;;;2.30;;
43152;SDS011;28756;49.064;9.290;2023-12-29T02:51:20;3.42;;;2.60;;
43152;SDS011;28756;49.064;9.290;2023-12-29T02:53:46;2.67;;;2.22;;
43152;SDS011;28756;49.064;9.290;2023-12-29T02:56:13;3.50;;;2.15;;
43152;SDS011;28756;49.064;9.290;2023-12-29T02:58:39;3.55;;;2.20;;
43152;SDS011;28756;49.064;9.290;2023-12-29T03:01:05;2.60;;;2.15;;
43152;SDS011;28756;49.064;9.290;2023-12-29T03:03:30;2.63;;;2.15;;
43152;SDS011;28756;49.064;9.290;2023-12-29T03:05:56;2.80;;;2.25;;
43152;SDS011;28756;49.064;9.290;2023-12-29T03:08:21;2.35;;;2.00;;
43152;SDS011;28756;49.064;9.290;2023-12-29T03:10:47;3.42;;;2.22;;
43152;SDS011;28756;49.064;9.290;2023-12-29T03:13:13;3.88;;;2.30;;
43152;SDS011;28756;49.064;9.290;2023-12-29T03:15:38;2.63;;;2.10;;
43152;SDS011;28756;49.064;9.290;2023-12-29T03:18:04;3.35;;;2.50;;
43152;SDS011;28756;49.064;9.290;2023-12-29T03:20:29;4.18;;;2.60;;
43152;SDS011;28756;49.064;9.290;2023-12-29T03:22:55;2.53;;;2.17;;
43152;SDS011;28756;49.064;9.290;2023-12-29T03:25:21;4.32;;;2.70;;
43152;SDS011;28756;49.064;9.290;2023-12-29T03:27:46;3.95;;;2.42;;
43152;SDS011;28756;49.064;9.290;2023-12-29T03:30:12;4.22;;;2.50;;
43152;SDS011;28756;49.064;9.290;2023-12-29T03:32:38;3.72;;;2.60;;
43152;SDS011;28756;49.064;9.290;2023-12-29T03:35:03;3.42;;;2.58;;
43152;SDS011;28756;49.064;9.290;2023-12-29T03:37:29;2.90;;;2.45;;
43152;SDS011;28756;49.064;9.290;2023-12-29T03:39:55;3.40;;;2.72;;
43152;SDS011;28756;49.064;9.290;2023-12-29T03:42:20;3.90;;;2.40;;
43152;SDS011;28756;49.064;9.290;2023-12-29T03:44:46;4.13;;;2.70;;
43152;SDS011;28756;49.064;9.290;2023-12-29T03:47:12;3.67;;;2.50;;
43152;SDS011;28756;49.064;9.290;2023-12-29T03:49:37;3.40;;;2.83;;
43152;SDS011;28756;49.064;9.290;2023-12-29T03:52:03;2.72;;;2.35;;
43152;SDS011;28756;49.064;9.290;2023-12-29T03:54:28;4.20;;;2.70;;
43152;SDS011;28756;49.064;9.290;2023-12-29T03:56:54;3.33;;;2.60;;
43152;SDS011;28756;49.064;9.290;2023-12-29T03:59:20;4.65;;;2.90;;
43152;SDS011;28756;49.064;9.290;2023-12-29T04:01:45;3.40;;;2.70;;
43152;SDS011;28756;49.064;9.290;2023-12-29T04:04:11;2.75;;;2.55;;
43152;SDS011;28756;49.064;9.290;2023-12-29T04:06:36;3.83;;;2.50;;
43152;SDS011;28756;49.064;9.290;2023-12-29T04:09:02;3.63;;;2.50;;
43152;SDS011;28756;49.064;9.290;2023-12-29T04:11:28;3.35;;;2.60;;
43152;SDS011;28756;49.064;9.290;2023-12-29T04:13:53;3.17;;;2.72;;
43152;SDS011;28756;49.064;9.290;2023-12-29T04:16:19;3.45;;;2.60;;
43152;SDS011;28756;49.064;9.290;2023-12-29T04:18:45;2.95;;;2.60;;
43152;SDS011;28756;49.064;9.290;2023-12-29T04:21:14;2.90;;;2.63;;
43152;SDS011;28756;49.064;9.290;2023-12-29T04:23:40;3.90;;;2.58;;
43152;SDS011;28756;49.064;9.290;2023-12-29T04:26:08;3.25;;;2.35;;
43152;SDS011;28756;49.064;9.290;2023-12-29T04:28:34;3.15;;;2.70;;
43152;SDS011;28756;49.064;9.290;2023-12-29T04:31:00;4.72;;;2.75;;
43152;SDS011;28756;49.064;9.290;2023-12-29T04:33:25;3.17;;;2.50;;
43152;SDS011;28756;49.064;9.290;2023-12-29T04:35:51;3.40;;;2.70;;
43152;SDS011;28756;49.064;9.290;2023-12-29T04:38:17;3.00;;;2.65;;
43152;SDS011;28756;49.064;9.290;2023-12-29T04:40:45;2.83;;;2.30;;
43152;SDS011;28756;49.064;9.290;2023-12-29T04:43:12;2.42;;;2.22;;
43152;SDS011;28756;49.064;9.290;2023-12-29T04:45:38;4.25;;;2.50;;
43152;SDS011;28756;49.064;9.290;2023-12-29T04:48:03;5.03;;;2.90;;
43152;SDS011;28756;49.064;9.290;2023-12-29T04:50:29;3.38;;;2.63;;
43152;SDS011;28756;49.064;9.290;2023-12-29T04:52:55;3.03;;;2.50;;
43152;SDS011;28756;49.064;9.290;2023-12-29T04:55:21;2.60;;;2.40;;
43152;SDS011;28756;49.064;9.290;2023-12-29T04:57:46;2.90;;;2.58;;
43152;SDS011;28756;49.064;9.290;2023-12-29T05:00:12;4.53;;;2.58;;
43152;SDS011;28756;49.064;9.290;2023-12-29T05:02:38;2.97;;;2.47;;
43152;SDS011;28756;49.064;9.290;2023-12-29T05:05:04;3.10;;;2.45;;
43152;SDS011;28756;49.064;9.290;2023-12-29T05:07:29;2.90;;;2.13;;
43152;SDS011;28756;49.064;9.290;2023-12-29T05:09:55;2.63;;;2.33;;
43152;SDS011;28756;49.064;9.290;2023-12-29T05:12:20;2.67;;;2.33;;
43152;SDS011;28756;49.064;9.290;2023-12-29T05:14:46;3.03;;;2.33;;
43152;SDS011;28756;49.064;9.290;2023-12-29T05:17:12;2.92;;;2.50;;
43152;SDS011;28756;49.064;9.290;2023-12-29T05:19:37;3.47;;;2.65;;
43152;SDS011;28756;49.064;9.290;2023-12-29T05:22:03;5.13;;;2.53;;
43152;SDS011;28756;49.064;9.290;2023-12-29T05:24:28;4.57;;;2.33;;
43152;SDS011;28756;49.064;9.290;2023-12-29T05:26:54;3.53;;;2.40;;
43152;SDS011;28756;49.064;9.290;2023-12-29T05:29:19;3.05;;;2.50;;
43152;SDS011;28756;49.064;9.290;2023-12-29T05:31:45;3.78;;;2.60;;
43152;SDS011;28756;49.064;9.290;2023-12-29T05:34:10;3.85;;;2.20;;
43152;SDS011;28756;49.064;9.290;2023-12-29T05:36:36;4.50;;;2.50;;
43152;SDS011;28756;49.064;9.290;2023-12-29T05:39:02;2.53;;;2.20;;
43152;SDS011;28756;49.064;9.290;2023-12-29T05:41:28;3.17;;;2.20;;
43152;SDS011;28756;49.064;9.290;2023-12-29T05:43:54;2.92;;;2.50;;
43152;SDS011;28756;49.064;9.290;2023-12-29T05:46:19;2.63;;;2.15;;
43152;SDS011;28756;49.064;9.290;2023-12-29T05:48:46;2.38;;;2.15;;
43152;SDS011;28756;49.064;9.290;2023-12-29T05:51:12;2.30;;;2.10;;
43152;SDS011;28756;49.064;9.290;2023-12-29T05:53:41;2.60;;;2.10;;
43152;SDS011;28756;49.064;9.290;2023-12-29T05:56:07;2.13;;;1.92;;
43152;SDS011;28756;49.064;9.290;2023-12-29T05:58:38;2.40;;;2.10;;
43152;SDS011;28756;49.064;9.290;2023-12-29T06:01:06;2.83;;;2.10;;
43152;SDS011;28756;49.064;9.290;2023-12-29T06:03:32;3.17;;;2.35;;
43152;SDS011;28756;49.064;9.290;2023-12-29T06:05:57;2.47;;;2.17;;
43152;SDS011;28756;49.064;9.290;2023-12-29T06:08:23;2.92;;;2.40;;
43152;SDS011;28756;49.064;9.290;2023-12-29T06:10:49;2.33;;;1.90;;
43152;SDS011;28756;49.064;9.290;2023-12-29T06:13:14;3.22;;;2.10;;
43152;SDS011;28756;49.064;9.290;2023-12-29T06:15:40;3.08;;;2.03;;
43152;SDS011;28756;49.064;9.290;2023-12-29T06:18:05;3.15;;;2.00;;
43152;SDS011;28756;49.064;9.290;2023-12-29T06:20:31;2.45;;;2.03;;
43152;SDS011;28756;49.064;9.290;2023-12-29T06:22:57;3.97;;;2.25;;
43152;SDS011;28756;49.064;9.290;2023-12-29T06:25:22;3.30;;;2.20;;
43152;SDS011;28756;49.064;9.290;2023-12-29T06:27:48;3.55;;;1.83;;
43152;SDS011;28756;49.064;9.290;2023-12-29T06:30:14;2.00;;;1.80;;
43152;SDS011;28756;49.064;9.290;2023-12-29T06:32:40;2.15;;;1.92;;
43152;SDS011;28756;49.064;9.290;2023-12-29T06:35:06;1.88;;;1.77;;
43152;SDS011;28756;49.064;9.290;2023-12-29T06:37:32;4.95;;;2.38;;
43152;SDS011;28756;49.064;9.290;2023-12-29T06:39:58;2.55;;;2.20;;
43152;SDS011;28756;49.064;9.290;2023-12-29T06:42:24;2.45;;;2.13;;
43152;SDS011;28756;49.064;9.290;2023-12-29T06:44:50;2.55;;;2.13;;
43152;SDS011;28756;49.064;9.290;2023-12-29T06:47:15;2.67;;;2.22;;
43152;SDS011;28756;49.064;9.290;2023-12-29T06:49:41;2.40;;;1.90;;
43152;SDS011;28756;49.064;9.290;2023-12-29T06:52:07;2.63;;;2.00;;
43152;SDS011;28756;49.064;9.290;2023-12-29T06:54:35;2.85;;;2.10;;
43152;SDS011;28756;49.064;9.290;2023-12-29T06:57:01;2.80;;;2.30;;
43152;SDS011;28756;49.064;9.290;2023-12-29T06:59:26;2.95;;;2.15;;
43152;SDS011;28756;49.064;9.290;2023-12-29T07:01:52;1.67;;;1.58;;
43152;SDS011;28756;49.064;9.290;2023-12-29T07:04:18;3.30;;;2.10;;
43152;SDS011;28756;49.064;9.290;2023-12-29T07:06:43;2.90;;;2.15;;
43152;SDS011;28756;49.064;9.290;2023-12-29T07:09:09;2.40;;;2.20;;
43152;SDS011;28756;49.064;9.290;2023-12-29T07:11:35;3.30;;;2.25;;
43152;SDS011;28756;49.064;9.290;2023-12-29T07:14:01;2.67;;;2.33;;
43152;SDS011;28756;49.064;9.290;2023-12-29T07:16:27;2.50;;;2.10;;
43152;SDS011;28756;49.064;9.290;2023-12-29T07:18:53;2.42;;;2.22;;
43152;SDS011;28756;49.064;9.290;2023-12-29T07:21:18;2.30;;;1.80;;
43152;SDS011;28756;49.064;9.290;2023-12-29T07:23:44;2.25;;;1.98;;
43152;SDS011;28756;49.064;9.290;2023-12-29T07:26:10;2.90;;;2.40;;
43152;SDS011;28756;49.064;9.290;2023-12-29T07:28:35;3.08;;;2.00;;
43152;SDS011;28756;49.064;9.290;2023-12-29T07:31:01;2.42;;;1.90;;
43152;SDS011;28756;49.064;9.290;2023-12-29T07:33:27;3.45;;;2.05;;
43152;SDS011;28756;49.064;9.290;2023-12-29T07:35:53;4.00;;;2.22;;
43152;SDS011;28756;49.064;9.290;2023-12-29T07:38:18;2.17;;;1.98;;
43152;SDS011;28756;49.064;9.290;2023-12-29T07:40:44;2.35;;;2.13;;
43152;SDS011;28756;49.064;9.290;2023-12-29T07:43:10;2.65;;;2.00;;
43152;SDS011;28756;49.064;9.290;2023-12-29T07:45:36;2.75;;;1.90;;
43152;SDS011;28756;49.064;9.290;2023-12-29T07:48:02;2.55;;;2.00;;
43152;SDS011;28756;49.064;9.290;2023-12-29T07:50:28;2.35;;;2.03;;
43152;SDS011;28756;49.064;9.290;2023-12-29T07:52:54;3.25;;;2.00;;
43152;SDS011;28756;49.064;9.290;2023-12-29T07:55:20;2.13;;;1.92;;
43152;SDS011;28756;49.064;9.290;2023-12-29T07:57:45;3.15;;;2.85;;
43152;SDS011;28756;49.064;9.290;2023-12-29T08:00:12;2.15;;;1.95;;
43152;SDS011;28756;49.064;9.290;2023-12-29T08:02:39;2.53;;;2.10;;
43152;SDS011;28756;49.064;9.290;2023-12-29T08:05:04;2.95;;;2.00;;
43152;SDS011;28756;49.064;9.290;2023-12-29T08:07:30;3.72;;;2.22;;
43152;SDS011;28756;49.064;9.290;2023-12-29T08:09:56;2.03;;;1.83;;
43152;SDS011;28756;49.064;9.290;2023-12-29T08:12:22;2.10;;;1.80;;
43152;SDS011;28756;49.064;9.290;2023-12-29T08:14:48;2.22;;;1.80;;
43152;SDS011;28756;49.064;9.290;2023-12-29T08:17:13;2.10;;;1.90;;
43152;SDS011;28756;49.064;9.290;2023-12-29T08:19:39;1.90;;;1.70;;
43152;SDS011;28756;49.064;9.290;2023-12-29T08:22:05;2.38;;;2.17;;
43152;SDS011;28756;49.064;9.290;2023-12-29T08:24:31;2.63;;;1.90;;
43152;SDS011;28756;49.064;9.290;2023-12-29T08:26:56;2.65;;;2.30;;
43152;SDS011;28756;49.064;9.290;2023-12-29T08:29:22;2.97;;;1.90;;
43152;SDS011;28756;49.064;9.290;2023-12-29T08:31:50;1.80;;;1.70;;
43152;SDS011;28756;49.064;9.290;2023-12-29T08:34:16;2.70;;;2.22;;
43152;SDS011;28756;49.064;9.290;2023-12-29T08:36:41;4.97;;;2.70;;
43152;SDS011;28756;49.064;9.290;2023-12-29T08:39:07;3.10;;;2.10;;
43152;SDS011;28756;49.064;9.290;2023-12-29T08:41:34;3.05;;;2.20;;
43152;SDS011;28756;49.064;9.290;2023-12-29T08:44:00;2.70;;;2.28;;
43152;SDS011;28756;49.064;9.290;2023-12-29T08:46:25;2.42;;;1.90;;
43152;SDS011;28756;49.064;9.290;2023-12-29T08:48:51;3.60;;;2.40;;
43152;SDS011;28756;49.064;9.290;2023-12-29T08:51:17;3.60;;;2.30;;
43152;SDS011;28756;49.064;9.290;2023-12-29T08:53:44;3.17;;;2.47;;
43152;SDS011;28756;49.064;9.290;2023-12-29T08:56:09;2.95;;;1.85;;
43152;SDS011;28756;49.064;9.290;2023-12-29T08:58:35;3.03;;;2.03;;
43152;SDS011;28756;49.064;9.290;2023-12-29T09:01:00;2.72;;;2.10;;
43152;SDS011;28756;49.064;9.290;2023-12-29T09:03:26;2.35;;;1.80;;
43152;SDS011;28756;49.064;9.290;2023-12-29T09:05:52;2.78;;;1.70;;
43152;SDS011;28756;49.064;9.290;2023-12-29T09:08:17;2.55;;;1.98;;
43152;SDS011;28756;49.064;9.290;2023-12-29T09:10:43;2.70;;;2.05;;
43152;SDS011;28756;49.064;9.290;2023-12-29T09:13:08;2.20;;;1.67;;
43152;SDS011;28756;49.064;9.290;2023-12-29T09:15:34;2.42;;;1.90;;
43152;SDS011;28756;49.064;9.290;2023-12-29T09:18:00;2.88;;;2.00;;
43152;SDS011;28756;49.064;9.290;2023-12-29T09:20:26;2.40;;;1.85;;
43152;SDS011;28756;49.064;9.290;2023-12-29T09:22:52;2.78;;;1.98;;
43152;SDS011;28756;49.064;9.290;2023-12-29T09:25:18;2.78;;;1.95;;
43152;SDS011;28756;49.064;9.290;2023-12-29T09:27:44;3.60;;;2.20;;
43152;SDS011;28756;49.064;9.290;2023-12-29T09:30:10;2.65;;;1.95;;
43152;SDS011;28756;49.064;9.290;2023-12-29T09:32:36;2.25;;;1.77;;
43152;SDS011;28756;49.064;9.290;2023-12-29T09:35:02;1.92;;;1.50;;
43152;SDS011;28756;49.064;9.290;2023-12-29T09:37:28;1.67;;;1.58;;
43152;SDS011;28756;49.064;9.290;2023-12-29T09:39:54;1.85;;;1.60;;
43152;SDS011;28756;49.064;9.290;2023-12-29T09:42:22;1.67;;;1.50;;
43152;SDS011;28756;49.064;9.290;2023-12-29T09:44:50;1.80;;;1.52;;
43152;SDS011;28756;49.064;9.290;2023-12-29T09:47:18;1.50;;;1.38;;
43152;SDS011;28756;49.064;9.290;2023-12-29T09:49:48;2.28;;;1.88;;
43152;SDS011;28756;49.064;9.290;2023-12-29T09:52:14;3.40;;;1.80;;
43152;SDS011;28756;49.064;9.290;2023-12-29T09:54:41;3.50;;;2.20;;
43152;SDS011;28756;49.064;9.290;2023-12-29T09:57:07;3.40;;;2.58;;
43152;SDS011;28756;49.064;9.290;2023-12-29T09:59:34;4.10;;;2.65;;
43152;SDS011;28756;49.064;9.290;2023-12-29T10:02:04;3.40;;;2.20;;
43152;SDS011;28756;49.064;9.290;2023-12-29T10:04:30;2.55;;;2.03;;
43152;SDS011;28756;49.064;9.290;2023-12-29T10:06:56;2.95;;;2.38;;
43152;SDS011;28756;49.064;9.290;2023-12-29T10:09:22;3.50;;;2.47;;
43152;SDS011;28756;49.064;9.290;2023-12-29T10:11:49;2.78;;;2.20;;
43152;SDS011;28756;49.064;9.290;2023-12-29T10:14:26;2.97;;;2.45;;
43152;SDS011;28756;49.064;9.290;2023-12-29T10:17:06;6.15;;;2.75;;
43152;SDS011;28756;49.064;9.290;2023-12-29T10:19:37;5.38;;;3.00;;
43152;SDS011;28756;49.064;9.290;2023-12-29T10:22:11;3.55;;;2.72;;
43152;SDS011;28756;49.064;9.290;2023-12-29T10:24:43;2.58;;;2.15;;
43152;SDS011;28756;49.064;9.290;2023-12-29T10:27:11;2.55;;;2.03;;
43152;SDS011;28756;49.064;9.290;2023-12-29T10:29:37;3.25;;;2.00;;
43152;SDS011;28756;49.064;9.290;2023-12-29T10:32:02;2.60;;;1.83;;
43152;SDS011;28756;49.064;9.290;2023-12-29T10:34:28;2.53;;;1.80;;
43152;SDS011;28756;49.064;9.290;2023-12-29T10:36:55;1.65;;;1.55;;
43152;SDS011;28756;49.064;9.290;2023-12-29T10:39:21;2.40;;;1.80;;
43152;SDS011;28756;49.064;9.290;2023-12-29T10:41:47;2.03;;;1.80;;
43152;SDS011;28756;49.064;9.290;2023-12-29T10:44:13;2.38;;;1.90;;
43152;SDS011;28756;49.064;9.290;2023-12-29T10:46:38;2.33;;;1.70;;
43152;SDS011;28756;49.064;9.290;2023-12-29T10:49:11;2.40;;;2.10;;
43152;SDS011;28756;49.064;9.290;2023-12-29T10:51:37;4.20;;;2.05;;
43152;SDS011;28756;49.064;9.290;2023-12-29T10:54:03;2.00;;;1.80;;
43152;SDS011;28756;49.064;9.290;2023-12-29T10:56:30;3.00;;;1.83;;
43152;SDS011;28756;49.064;9.290;2023-12-29T10:59:05;1.77;;;1.55;;
43152;SDS011;28756;49.064;9.290;2023-12-29T11:01:32;3.03;;;1.70;;
43152;SDS011;28756;49.064;9.290;2023-12-29T11:06:26;1.90;;;1.20;;
43152;SDS011;28756;49.064;9.290;2023-12-29T11:08:53;1.45;;;1.15;;
43152;SDS011;28756;49.064;9.290;2023-12-29T11:11:19;1.17;;;0.90;;
43152;SDS011;28756;49.064;9.290;2023-12-29T11:13:48;0.90;;;0.80;;
43152;SDS011;28756;49.064;9.290;2023-12-29T11:16:16;3.13;;;0.90;;
43152;SDS011;28756;49.064;9.290;2023-12-29T11:18:47;1.52;;;0.77;;
43152;SDS011;28756;49.064;9.290;2023-12-29T11:21:12;1.10;;;0.80;;
43152;SDS011;28756;49.064;9.290;2023-12-29T11:23:39;1.23;;;0.70;;
43152;SDS011;28756;49.064;9.290;2023-12-29T11:26:04;0.60;;;0.60;;
43152;SDS011;28756;49.064;9.290;2023-12-29T11:28:30;0.77;;;0.77;;
43152;SDS011;28756;49.064;9.290;2023-12-29T11:30:55;0.50;;;0.50;;
43152;SDS011;28756;49.064;9.290;2023-12-29T11:33:23;0.65;;;0.60;;
43152;SDS011;28756;49.064;9.290;2023-12-29T11:35:59;0.70;;;0.60;;
43152;SDS011;28756;49.064;9.290;2023-12-29T11:38:38;1.42;;;0.60;;
43152;SDS011;28756;49.064;9.290;2023-12-29T11:43:57;0.50;;;0.50;;
43152;SDS011;28756;49.064;9.290;2023-12-29T11:46:33;0.80;;;0.68;;
43152;SDS011;28756;49.064;9.290;2023-12-29T11:48:59;1.00;;;0.50;;
43152;SDS011;28756;49.064;9.290;2023-12-29T11:51:29;1.50;;;0.40;;
43152;SDS011;28756;49.064;9.290;2023-12-29T11:53:56;1.13;;;0.50;;
43152;SDS011;28756;49.064;9.290;2023-12-29T11:56:21;0.65;;;0.50;;
43152;SDS011;28756;49.064;9.290;2023-12-29T11:58:47;0.82;;;0.52;;
43152;SDS011;28756;49.064;9.290;2023-12-29T12:01:13;0.50;;;0.50;;
43152;SDS011;28756;49.064;9.290;2023-12-29T12:03:39;0.60;;;0.60;;
43152;SDS011;28756;49.064;9.290;2023-12-29T12:06:07;0.80;;;0.50;;
43152;SDS011;28756;49.064;9.290;2023-12-29T12:08:36;2.05;;;0.60;;
43152;SDS011;28756;49.064;9.290;2023-12-29T12:13:54;1.63;;;0.55;;
43152;SDS011;28756;49.064;9.290;2023-12-29T12:16:46;0.40;;;0.40;;
43152;SDS011;28756;49.064;9.290;2023-12-29T12:19:11;0.60;;;0.50;;
43152;SDS011;28756;49.064;9.290;2023-12-29T12:21:37;0.88;;;0.50;;
43152;SDS011;28756;49.064;9.290;2023-12-29T12:24:03;0.50;;;0.50;;
43152;SDS011;28756;49.064;9.290;2023-12-29T12:26:30;0.60;;;0.50;;
43152;SDS011;28756;49.064;9.290;2023-12-29T12:28:56;0.50;;;0.50;;
43152;SDS011;28756;49.064;9.290;2023-12-29T12:31:21;0.75;;;0.60;;
43152;SDS011;28756;49.064;9.290;2023-12-29T12:33:57;1.10;;;0.50;;
43152;SDS011;28756;49.064;9.290;2023-12-29T12:36:23;0.50;;;0.50;;
43152;SDS011;28756;49.064;9.290;2023-12-29T12:38:53;0.70;;;0.57;;
43152;SDS011;28756;49.064;9.290;2023-12-29T12:41:23;0.73;;;0.63;;
43152;SDS011;28756;49.064;9.290;2023-12-29T12:44:11;0.68;;;0.60;;
43152;SDS011;28756;49.064;9.290;2023-12-29T12:46:44;0.88;;;0.52;;
43152;SDS011;28756;49.064;9.290;2023-12-29T12:49:19;0.68;;;0.50;;
43152;SDS011;28756;49.064;9.290;2023-12-29T12:51:46;1.30;;;0.68;;
43152;SDS011;28756;49.064;9.290;2023-12-29T12:54:11;1.27;;;0.63;;
43152;SDS011;28756;49.064;9.290;2023-12-29T12:56:38;0.88;;;0.60;;
43152;SDS011;28756;49.064;9.290;2023-12-29T12:59:06;1.00;;;0.70;;
43152;SDS011;28756;49.064;9.290;2023-12-29T13:01:36;1.33;;;0.90;;
43152;SDS011;28756;49.064;9.290;2023-12-29T13:04:02;1.98;;;0.70;;
43152;SDS011;28756;49.064;9.290;2023-12-29T13:06:29;1.95;;;0.80;;
43152;SDS011;28756;49.064;9.290;2023-12-29T13:08:55;1.40;;;0.90;;
43152;SDS011;28756;49.064;9.290;2023-12-29T13:11:21;0.80;;;0.70;;
43152;SDS011;28756;49.064;9.290;2023-12-29T13:13:49;1.85;;;0.75;;
43152;SDS011;28756;49.064;9.290;2023-12-29T13:16:15;1.02;;;0.70;;
43152;SDS011;28756;49.064;9.290;2023-12-29T13:18:40;0.75;;;0.70;;
43152;SDS011;28756;49.064;9.290;2023-12-29T13:21:06;1.17;;;0.90;;
43152;SDS011;28756;49.064;9.290;2023-12-29T13:23:32;1.00;;;0.88;;
43152;SDS011;28756;49.064;9.290;2023-12-29T13:26:02;0.70;;;0.70;;
43152;SDS011;28756;49.064;9.290;2023-12-29T13:28:31;0.70;;;0.70;;
43152;SDS011;28756;49.064;9.290;2023-12-29T13:30:57;1.60;;;0.90;;
43152;SDS011;28756;49.064;9.290;2023-12-29T13:33:25;1.00;;;0.77;;
43152;SDS011;28756;49.064;9.290;2023-12-29T13:35:56;0.95;;;0.80;;
43152;SDS011;28756;49.064;9.290;2023-12-29T13:38:40;1.02;;;0.90;;
43152;SDS011;28756;49.064;9.290;2023-12-29T13:41:11;0.85;;;0.80;;
43152;SDS011;28756;49.064;9.290;2023-12-29T13:43:39;1.33;;;1.00;;
43152;SDS011;28756;49.064;9.290;2023-12-29T13:46:07;1.10;;;1.00;;
43152;SDS011;28756;49.064;9.290;2023-12-29T13:48:34;1.23;;;1.10;;
43152;SDS011;28756;49.064;9.290;2023-12-29T13:50:59;1.42;;;1.00;;
43152;SDS011;28756;49.064;9.290;2023-12-29T13:53:25;1.10;;;0.85;;
43152;SDS011;28756;49.064;9.290;2023-12-29T13:55:50;1.25;;;0.93;;
43152;SDS011;28756;49.064;9.290;2023-12-29T13:58:16;1.88;;;1.23;;
43152;SDS011;28756;49.064;9.290;2023-12-29T14:00:42;2.10;;;0.90;;
43152;SDS011;28756;49.064;9.290;2023-12-29T14:03:15;1.40;;;1.10;;
43152;SDS011;28756;49.064;9.290;2023-12-29T14:05:48;1.50;;;1.20;;
43152;SDS011;28756;49.064;9.290;2023-12-29T14:08:17;1.60;;;1.27;;
43152;SDS011;28756;49.064;9.290;2023-12-29T14:10:46;2.17;;;1.30;;
43152;SDS011;28756;49.064;9.290;2023-12-29T14:13:12;1.27;;;1.02;;
43152;SDS011;28756;49.064;9.290;2023-12-29T14:15:39;1.30;;;1.00;;
43152;SDS011;28756;49.064;9.290;2023-12-29T14:20:38;1.25;;;0.90;;
43152;SDS011;28756;49.064;9.290;2023-12-29T14:23:07;1.40;;;1.10;;
43152;SDS011;28756;49.064;9.290;2023-12-29T14:25:33;1.88;;;1.15;;
43152;SDS011;28756;49.064;9.290;2023-12-29T14:28:01;1.45;;;1.00;;
43152;SDS011;28756;49.064;9.290;2023-12-29T14:30:27;1.42;;;1.10;;
43152;SDS011;28756;49.064;9.290;2023-12-29T14:32:57;1.40;;;1.10;;
43152;SDS011;28756;49.064;9.290;2023-12-29T14:35:23;1.20;;;0.98;;
43152;SDS011;28756;49.064;9.290;2023-12-29T14:37:49;1.10;;;0.90;;
43152;SDS011;28756;49.064;9.290;2023-12-29T14:40:15;1.42;;;0.90;;
43152;SDS011;28756;49.064;9.290;2023-12-29T14:42:41;1.58;;;1.02;;
43152;SDS011;28756;49.064;9.290;2023-12-29T14:45:08;1.40;;;1.00;;
43152;SDS011;28756;49.064;9.290;2023-12-29T14:47:37;2.13;;;1.60;;
43152;SDS011;28756;49.064;9.290;2023-12-29T14:50:03;2.53;;;1.80;;
43152;SDS011;28756;49.064;9.290;2023-12-29T14:52:29;3.10;;;1.42;;
43152;SDS011;28756;49.064;9.290;2023-12-29T14:54:54;2.25;;;1.52;;